sensor_id;sensor_type;location;lat;lon;timestamp;temperature;humidity
40702;DHT22;26387;50.114;8.662;2022-08-19T00:00:26;24.40;70.40
40702;DHT22;26387;50.114;8.662;2022-08-19T00:02:53;24.40;70.50
40702;DHT22;26387;50.114;8.662;2022-08-19T00:05:19;24.40;70.60
40702;DHT22;26387;50.114;8.662;2022-08-19T00:07:45;24.40;70.50
40702;DHT22;26387;50.114;8.662;2022-08-19T00:10:14;24.40;70.70
40702;DHT22;26387;50.114;8.662;2022-08-19T00:12:41;24.40;70.70
40702;DHT22;26387;50.114;8.662;2022-08-19T00:15:12;24.40;70.80
40702;DHT22;26387;50.114;8.662;2022-08-19T00:17:40;24.40;71.00
40702;DHT22;26387;50.114;8.662;2022-08-19T00:20:11;24.30;71.00
40702;DHT22;26387;50.114;8.662;2022-08-19T00:22:38;24.30;71.10
40702;DHT22;26387;50.114;8.662;2022-08-19T00:25:05;24.30;71.20
40702;DHT22;26387;50.114;8.662;2022-08-19T00:27:31;24.20;71.30
40702;DHT22;26387;50.114;8.662;2022-08-19T00:29:57;24.20;71.40
40702;DHT22;26387;50.114;8.662;2022-08-19T00:32:24;24.20;71.50
40702;DHT22;26387;50.114;8.662;2022-08-19T00:34:51;24.20;71.60
40702;DHT22;26387;50.114;8.662;2022-08-19T00:37:20;24.20;71.60
40702;DHT22;26387;50.114;8.662;2022-08-19T00:39:48;24.20;71.70
40702;DHT22;26387;50.114;8.662;2022-08-19T00:42:14;24.10;71.90
40702;DHT22;26387;50.114;8.662;2022-08-19T00:44:41;24.20;71.90
40702;DHT22;26387;50.114;8.662;2022-08-19T00:47:06;24.20;71.90
40702;DHT22;26387;50.114;8.662;2022-08-19T00:49:37;24.20;71.80
40702;DHT22;26387;50.114;8.662;2022-08-19T00:52:04;24.20;71.80
40702;DHT22;26387;50.114;8.662;2022-08-19T00:54:32;24.20;71.80
40702;DHT22;26387;50.114;8.662;2022-08-19T00:56:59;24.20;71.70
40702;DHT22;26387;50.114;8.662;2022-08-19T00:59:28;24.20;71.70
40702;DHT22;26387;50.114;8.662;2022-08-19T01:01:54;24.20;71.80
40702;DHT22;26387;50.114;8.662;2022-08-19T01:04:20;24.20;71.70
40702;DHT22;26387;50.114;8.662;2022-08-19T01:06:45;24.20;71.50
40702;DHT22;26387;50.114;8.662;2022-08-19T01:09:11;24.20;71.40
40702;DHT22;26387;50.114;8.662;2022-08-19T01:11:41;24.20;71.40
40702;DHT22;26387;50.114;8.662;2022-08-19T01:14:09;24.20;71.50
40702;DHT22;26387;50.114;8.662;2022-08-19T01:16:35;24.20;71.30
40702;DHT22;26387;50.114;8.662;2022-08-19T01:19:06;24.30;71.30
40702;DHT22;26387;50.114;8.662;2022-08-19T01:21:41;24.20;71.30
40702;DHT22;26387;50.114;8.662;2022-08-19T01:24:09;24.20;71.40
40702;DHT22;26387;50.114;8.662;2022-08-19T01:26:40;24.30;71.30
40702;DHT22;26387;50.114;8.662;2022-08-19T01:29:07;24.20;71.30
40702;DHT22;26387;50.114;8.662;2022-08-19T01:31:33;24.30;71.20
40702;DHT22;26387;50.114;8.662;2022-08-19T01:34:00;24.20;71.20
40702;DHT22;26387;50.114;8.662;2022-08-19T01:36:33;24.30;71.30
40702;DHT22;26387;50.114;8.662;2022-08-19T01:39:00;24.30;71.30
40702;DHT22;26387;50.114;8.662;2022-08-19T01:41:26;24.30;71.30
40702;DHT22;26387;50.114;8.662;2022-08-19T01:43:52;24.30;71.10
40702;DHT22;26387;50.114;8.662;2022-08-19T01:46:18;24.30;71.10
40702;DHT22;26387;50.114;8.662;2022-08-19T01:48:45;24.30;71.10
40702;DHT22;26387;50.114;8.662;2022-08-19T01:51:12;24.20;71.00
40702;DHT22;26387;50.114;8.662;2022-08-19T01:53:38;24.30;71.10
40702;DHT22;26387;50.114;8.662;2022-08-19T01:56:05;24.30;71.10
40702;DHT22;26387;50.114;8.662;2022-08-19T01:58:41;24.30;71.00
40702;DHT22;26387;50.114;8.662;2022-08-19T02:01:11;24.30;71.10
40702;DHT22;26387;50.114;8.662;2022-08-19T02:03:37;24.30;71.70
40702;DHT22;26387;50.114;8.662;2022-08-19T02:06:03;24.20;71.00
40702;DHT22;26387;50.114;8.662;2022-08-19T02:08:32;24.20;71.20
40702;DHT22;26387;50.114;8.662;2022-08-19T02:10:58;24.20;71.20
40702;DHT22;26387;50.114;8.662;2022-08-19T02:13:26;24.10;71.40
40702;DHT22;26387;50.114;8.662;2022-08-19T02:15:51;24.20;71.60
40702;DHT22;26387;50.114;8.662;2022-08-19T02:18:17;24.10;71.60
40702;DHT22;26387;50.114;8.662;2022-08-19T02:20:44;24.10;71.70
40702;DHT22;26387;50.114;8.662;2022-08-19T02:23:11;24.10;71.80
40702;DHT22;26387;50.114;8.662;2022-08-19T02:25:37;24.10;71.90
40702;DHT22;26387;50.114;8.662;2022-08-19T02:28:03;24.10;71.90
40702;DHT22;26387;50.114;8.662;2022-08-19T02:30:28;24.10;72.00
40702;DHT22;26387;50.114;8.662;2022-08-19T02:32:54;24.10;72.00
40702;DHT22;26387;50.114;8.662;2022-08-19T02:35:20;24.10;72.00
40702;DHT22;26387;50.114;8.662;2022-08-19T02:37:46;24.10;72.10
40702;DHT22;26387;50.114;8.662;2022-08-19T02:40:31;24.10;72.20
40702;DHT22;26387;50.114;8.662;2022-08-19T02:43:00;24.10;72.20
40702;DHT22;26387;50.114;8.662;2022-08-19T02:45:26;24.10;72.30
40702;DHT22;26387;50.114;8.662;2022-08-19T02:47:52;24.10;72.50
40702;DHT22;26387;50.114;8.662;2022-08-19T02:50:18;24.10;72.50
40702;DHT22;26387;50.114;8.662;2022-08-19T02:52:44;24.10;72.70
40702;DHT22;26387;50.114;8.662;2022-08-19T02:55:10;24.10;72.80
40702;DHT22;26387;50.114;8.662;2022-08-19T02:57:36;24.00;72.80
40702;DHT22;26387;50.114;8.662;2022-08-19T03:00:07;24.00;72.90
40702;DHT22;26387;50.114;8.662;2022-08-19T03:02:33;24.00;73.30
40702;DHT22;26387;50.114;8.662;2022-08-19T03:04:59;24.00;73.30
40702;DHT22;26387;50.114;8.662;2022-08-19T03:07:25;23.90;73.50
40702;DHT22;26387;50.114;8.662;2022-08-19T03:09:50;23.90;73.60
40702;DHT22;26387;50.114;8.662;2022-08-19T03:12:16;23.90;73.70
40702;DHT22;26387;50.114;8.662;2022-08-19T03:14:41;23.80;73.80
40702;DHT22;26387;50.114;8.662;2022-08-19T03:17:07;23.80;74.00
40702;DHT22;26387;50.114;8.662;2022-08-19T03:19:33;23.80;74.20
40702;DHT22;26387;50.114;8.662;2022-08-19T03:21:59;23.80;74.50
40702;DHT22;26387;50.114;8.662;2022-08-19T03:24:24;23.70;74.60
40702;DHT22;26387;50.114;8.662;2022-08-19T03:26:53;23.70;74.80
40702;DHT22;26387;50.114;8.662;2022-08-19T03:29:23;23.60;75.00
40702;DHT22;26387;50.114;8.662;2022-08-19T03:31:48;23.60;75.10
40702;DHT22;26387;50.114;8.662;2022-08-19T03:34:19;23.60;75.30
40702;DHT22;26387;50.114;8.662;2022-08-19T03:36:46;23.60;75.50
40702;DHT22;26387;50.114;8.662;2022-08-19T03:39:12;23.50;75.60
40702;DHT22;26387;50.114;8.662;2022-08-19T03:41:40;23.50;75.70
40702;DHT22;26387;50.114;8.662;2022-08-19T03:44:06;23.50;75.80
40702;DHT22;26387;50.114;8.662;2022-08-19T03:46:33;23.50;75.90
40702;DHT22;26387;50.114;8.662;2022-08-19T03:49:00;23.50;76.00
40702;DHT22;26387;50.114;8.662;2022-08-19T03:51:31;23.50;76.00
40702;DHT22;26387;50.114;8.662;2022-08-19T03:53:59;23.50;76.10
40702;DHT22;26387;50.114;8.662;2022-08-19T03:56:26;23.50;76.20
40702;DHT22;26387;50.114;8.662;2022-08-19T03:58:57;23.50;76.30
40702;DHT22;26387;50.114;8.662;2022-08-19T04:01:25;23.50;76.40
40702;DHT22;26387;50.114;8.662;2022-08-19T04:03:56;23.50;76.40
40702;DHT22;26387;50.114;8.662;2022-08-19T04:06:28;23.50;76.50
40702;DHT22;26387;50.114;8.662;2022-08-19T04:08:56;23.50;76.50
40702;DHT22;26387;50.114;8.662;2022-08-19T04:11:25;23.50;76.50
40702;DHT22;26387;50.114;8.662;2022-08-19T04:13:51;23.50;76.60
40702;DHT22;26387;50.114;8.662;2022-08-19T04:16:19;23.50;76.70
40702;DHT22;26387;50.114;8.662;2022-08-19T04:18:46;23.40;76.80
40702;DHT22;26387;50.114;8.662;2022-08-19T04:21:20;23.40;76.90
40702;DHT22;26387;50.114;8.662;2022-08-19T04:23:46;23.40;77.20
40702;DHT22;26387;50.114;8.662;2022-08-19T04:26:14;23.30;77.00
40702;DHT22;26387;50.114;8.662;2022-08-19T04:28:41;23.30;77.20
40702;DHT22;26387;50.114;8.662;2022-08-19T04:31:22;23.30;77.20
40702;DHT22;26387;50.114;8.662;2022-08-19T04:33:52;23.30;77.40
40702;DHT22;26387;50.114;8.662;2022-08-19T04:36:20;23.20;77.40
40702;DHT22;26387;50.114;8.662;2022-08-19T04:38:52;23.30;77.40
40702;DHT22;26387;50.114;8.662;2022-08-19T04:41:18;23.30;77.40
40702;DHT22;26387;50.114;8.662;2022-08-19T04:44:02;23.20;77.40
40702;DHT22;26387;50.114;8.662;2022-08-19T04:46:28;23.30;77.40
40702;DHT22;26387;50.114;8.662;2022-08-19T04:48:55;23.30;77.50
40702;DHT22;26387;50.114;8.662;2022-08-19T04:51:22;23.20;77.50
40702;DHT22;26387;50.114;8.662;2022-08-19T04:53:48;23.30;77.50
40702;DHT22;26387;50.114;8.662;2022-08-19T04:56:16;23.30;77.60
40702;DHT22;26387;50.114;8.662;2022-08-19T04:58:43;23.30;77.60
40702;DHT22;26387;50.114;8.662;2022-08-19T05:01:13;23.30;77.70
40702;DHT22;26387;50.114;8.662;2022-08-19T05:03:38;23.30;77.60
40702;DHT22;26387;50.114;8.662;2022-08-19T05:06:09;23.30;77.50
40702;DHT22;26387;50.114;8.662;2022-08-19T05:08:37;23.40;77.40
40702;DHT22;26387;50.114;8.662;2022-08-19T05:11:21;23.40;77.20
40702;DHT22;26387;50.114;8.662;2022-08-19T05:13:47;23.50;77.20
40702;DHT22;26387;50.114;8.662;2022-08-19T05:16:15;23.50;77.10
40702;DHT22;26387;50.114;8.662;2022-08-19T05:18:42;23.50;77.20
40702;DHT22;26387;50.114;8.662;2022-08-19T05:21:28;23.50;77.00
40702;DHT22;26387;50.114;8.662;2022-08-19T05:24:13;23.60;76.80
40702;DHT22;26387;50.114;8.662;2022-08-19T05:26:41;23.70;76.70
40702;DHT22;26387;50.114;8.662;2022-08-19T05:29:08;23.70;76.60
40702;DHT22;26387;50.114;8.662;2022-08-19T05:31:35;23.80;76.40
40702;DHT22;26387;50.114;8.662;2022-08-19T05:34:02;23.80;76.20
40702;DHT22;26387;50.114;8.662;2022-08-19T05:36:34;23.80;76.00
40702;DHT22;26387;50.114;8.662;2022-08-19T05:39:00;23.90;75.80
40702;DHT22;26387;50.114;8.662;2022-08-19T05:41:26;24.00;75.60
40702;DHT22;26387;50.114;8.662;2022-08-19T05:43:57;24.00;75.60
40702;DHT22;26387;50.114;8.662;2022-08-19T05:46:23;24.10;75.60
40702;DHT22;26387;50.114;8.662;2022-08-19T05:48:48;24.10;75.60
40702;DHT22;26387;50.114;8.662;2022-08-19T05:51:15;24.20;75.10
40702;DHT22;26387;50.114;8.662;2022-08-19T05:53:42;24.20;74.70
40702;DHT22;26387;50.114;8.662;2022-08-19T05:56:12;24.30;74.60
40702;DHT22;26387;50.114;8.662;2022-08-19T05:58:40;24.40;74.40
40702;DHT22;26387;50.114;8.662;2022-08-19T06:01:12;24.40;74.10
40702;DHT22;26387;50.114;8.662;2022-08-19T06:03:38;24.40;73.90
40702;DHT22;26387;50.114;8.662;2022-08-19T06:06:07;24.40;73.80
40702;DHT22;26387;50.114;8.662;2022-08-19T06:08:33;24.50;73.50
40702;DHT22;26387;50.114;8.662;2022-08-19T06:11:31;24.50;73.50
40702;DHT22;26387;50.114;8.662;2022-08-19T06:14:03;24.50;73.30
40702;DHT22;26387;50.114;8.662;2022-08-19T06:16:29;24.60;73.20
40702;DHT22;26387;50.114;8.662;2022-08-19T06:18:59;24.60;72.90
40702;DHT22;26387;50.114;8.662;2022-08-19T06:21:26;24.60;72.70
40702;DHT22;26387;50.114;8.662;2022-08-19T06:23:53;24.60;72.70
40702;DHT22;26387;50.114;8.662;2022-08-19T06:26:19;24.60;72.70
40702;DHT22;26387;50.114;8.662;2022-08-19T06:28:46;24.60;72.70
40702;DHT22;26387;50.114;8.662;2022-08-19T06:31:17;24.60;72.50
40702;DHT22;26387;50.114;8.662;2022-08-19T06:33:46;24.60;72.50
40702;DHT22;26387;50.114;8.662;2022-08-19T06:36:22;24.70;72.20
40702;DHT22;26387;50.114;8.662;2022-08-19T06:38:52;24.60;72.20
40702;DHT22;26387;50.114;8.662;2022-08-19T06:41:18;24.70;72.20
40702;DHT22;26387;50.114;8.662;2022-08-19T06:43:43;24.70;71.70
40702;DHT22;26387;50.114;8.662;2022-08-19T06:46:11;24.70;71.80
40702;DHT22;26387;50.114;8.662;2022-08-19T06:48:37;24.70;71.70
40702;DHT22;26387;50.114;8.662;2022-08-19T06:51:04;24.70;71.50
40702;DHT22;26387;50.114;8.662;2022-08-19T06:53:31;24.80;71.50
40702;DHT22;26387;50.114;8.662;2022-08-19T06:55:57;24.70;71.40
40702;DHT22;26387;50.114;8.662;2022-08-19T06:58:28;24.80;71.50
40702;DHT22;26387;50.114;8.662;2022-08-19T07:00:58;24.80;71.20
40702;DHT22;26387;50.114;8.662;2022-08-19T07:03:28;24.90;71.10
40702;DHT22;26387;50.114;8.662;2022-08-19T07:05:55;24.90;70.80
40702;DHT22;26387;50.114;8.662;2022-08-19T07:08:21;24.90;70.50
40702;DHT22;26387;50.114;8.662;2022-08-19T07:10:47;25.00;70.20
40702;DHT22;26387;50.114;8.662;2022-08-19T07:13:14;25.00;70.10
40702;DHT22;26387;50.114;8.662;2022-08-19T07:15:40;25.00;70.10
40702;DHT22;26387;50.114;8.662;2022-08-19T07:18:06;25.00;69.60
40702;DHT22;26387;50.114;8.662;2022-08-19T07:20:32;25.00;69.40
40702;DHT22;26387;50.114;8.662;2022-08-19T07:22:58;25.00;69.70
40702;DHT22;26387;50.114;8.662;2022-08-19T07:25:24;25.00;69.80
40702;DHT22;26387;50.114;8.662;2022-08-19T07:27:49;25.00;69.50
40702;DHT22;26387;50.114;8.662;2022-08-19T07:30:16;25.10;69.20
40702;DHT22;26387;50.114;8.662;2022-08-19T07:32:42;25.10;68.80
40702;DHT22;26387;50.114;8.662;2022-08-19T07:35:08;25.20;68.70
40702;DHT22;26387;50.114;8.662;2022-08-19T07:37:35;25.20;68.50
40702;DHT22;26387;50.114;8.662;2022-08-19T07:40:04;25.30;68.20
40702;DHT22;26387;50.114;8.662;2022-08-19T07:42:30;25.40;67.90
40702;DHT22;26387;50.114;8.662;2022-08-19T07:44:56;25.40;67.70
40702;DHT22;26387;50.114;8.662;2022-08-19T07:47:22;25.40;67.30
40702;DHT22;26387;50.114;8.662;2022-08-19T07:49:48;25.50;67.00
40702;DHT22;26387;50.114;8.662;2022-08-19T07:52:14;25.60;67.10
40702;DHT22;26387;50.114;8.662;2022-08-19T07:54:40;25.70;66.50
40702;DHT22;26387;50.114;8.662;2022-08-19T07:57:07;25.70;66.10
40702;DHT22;26387;50.114;8.662;2022-08-19T07:59:33;25.70;65.70
40702;DHT22;26387;50.114;8.662;2022-08-19T08:01:59;25.80;65.30
40702;DHT22;26387;50.114;8.662;2022-08-19T08:04:26;26.00;65.00
40702;DHT22;26387;50.114;8.662;2022-08-19T08:07:10;26.00;64.80
40702;DHT22;26387;50.114;8.662;2022-08-19T08:09:54;26.10;64.60
40702;DHT22;26387;50.114;8.662;2022-08-19T08:12:27;26.20;64.10
40702;DHT22;26387;50.114;8.662;2022-08-19T08:14:55;26.30;63.90
40702;DHT22;26387;50.114;8.662;2022-08-19T08:17:25;26.30;64.00
40702;DHT22;26387;50.114;8.662;2022-08-19T08:19:51;26.50;63.70
40702;DHT22;26387;50.114;8.662;2022-08-19T08:22:19;26.60;63.30
40702;DHT22;26387;50.114;8.662;2022-08-19T08:25:07;26.70;63.00
40702;DHT22;26387;50.114;8.662;2022-08-19T08:27:41;26.80;62.60
40702;DHT22;26387;50.114;8.662;2022-08-19T08:30:09;27.00;62.10
40702;DHT22;26387;50.114;8.662;2022-08-19T08:32:39;27.20;61.80
40702;DHT22;26387;50.114;8.662;2022-08-19T08:35:06;27.30;61.20
40702;DHT22;26387;50.114;8.662;2022-08-19T08:37:33;27.40;60.70
40702;DHT22;26387;50.114;8.662;2022-08-19T08:40:02;27.50;60.50
40702;DHT22;26387;50.114;8.662;2022-08-19T08:42:34;27.50;61.00
40702;DHT22;26387;50.114;8.662;2022-08-19T08:45:13;27.60;60.10
40702;DHT22;26387;50.114;8.662;2022-08-19T08:47:44;27.60;59.40
40702;DHT22;26387;50.114;8.662;2022-08-19T08:53:18;27.70;59.40
40702;DHT22;26387;50.114;8.662;2022-08-19T08:55:44;27.80;58.80
40702;DHT22;26387;50.114;8.662;2022-08-19T08:58:20;27.80;58.70
40702;DHT22;26387;50.114;8.662;2022-08-19T09:00:49;27.60;59.00
40702;DHT22;26387;50.114;8.662;2022-08-19T09:03:22;27.60;59.10
40702;DHT22;26387;50.114;8.662;2022-08-19T09:08:49;27.60;59.10
40702;DHT22;26387;50.114;8.662;2022-08-19T09:14:32;27.70;58.50
40702;DHT22;26387;50.114;8.662;2022-08-19T09:16:58;27.80;58.90
40702;DHT22;26387;50.114;8.662;2022-08-19T09:19:24;27.60;58.40
40702;DHT22;26387;50.114;8.662;2022-08-19T09:21:50;27.70;58.10
40702;DHT22;26387;50.114;8.662;2022-08-19T09:24:16;27.70;57.90
40702;DHT22;26387;50.114;8.662;2022-08-19T09:26:41;27.70;57.80
40702;DHT22;26387;50.114;8.662;2022-08-19T09:29:09;27.80;57.50
40702;DHT22;26387;50.114;8.662;2022-08-19T09:31:35;27.80;56.90
40702;DHT22;26387;50.114;8.662;2022-08-19T09:34:01;27.80;56.50
40702;DHT22;26387;50.114;8.662;2022-08-19T09:36:30;28.00;56.50
40702;DHT22;26387;50.114;8.662;2022-08-19T09:38:59;28.10;56.30
40702;DHT22;26387;50.114;8.662;2022-08-19T09:41:26;28.30;56.60
40702;DHT22;26387;50.114;8.662;2022-08-19T09:43:54;28.40;56.20
40702;DHT22;26387;50.114;8.662;2022-08-19T09:46:28;28.40;56.50
40702;DHT22;26387;50.114;8.662;2022-08-19T09:48:54;28.10;56.60
40702;DHT22;26387;50.114;8.662;2022-08-19T09:51:23;28.20;56.50
40702;DHT22;26387;50.114;8.662;2022-08-19T09:53:50;28.20;56.20
40702;DHT22;26387;50.114;8.662;2022-08-19T09:56:17;28.20;56.60
40702;DHT22;26387;50.114;8.662;2022-08-19T09:58:44;28.40;56.60
40702;DHT22;26387;50.114;8.662;2022-08-19T10:03:55;28.80;55.70
40702;DHT22;26387;50.114;8.662;2022-08-19T10:06:23;28.90;55.20
40702;DHT22;26387;50.114;8.662;2022-08-19T10:08:50;29.00;54.80
40702;DHT22;26387;50.114;8.662;2022-08-19T10:11:17;29.00;54.70
40702;DHT22;26387;50.114;8.662;2022-08-19T10:13:44;29.00;53.90
40702;DHT22;26387;50.114;8.662;2022-08-19T10:16:16;29.10;54.00
40702;DHT22;26387;50.114;8.662;2022-08-19T10:18:43;29.10;53.50
40702;DHT22;26387;50.114;8.662;2022-08-19T10:23:44;29.30;53.40
40702;DHT22;26387;50.114;8.662;2022-08-19T10:26:12;29.30;53.70
40702;DHT22;26387;50.114;8.662;2022-08-19T10:28:38;29.30;52.90
40702;DHT22;26387;50.114;8.662;2022-08-19T10:31:16;29.30;53.00
40702;DHT22;26387;50.114;8.662;2022-08-19T10:33:45;29.30;52.10
40702;DHT22;26387;50.114;8.662;2022-08-19T10:36:20;29.20;52.40
40702;DHT22;26387;50.114;8.662;2022-08-19T10:38:50;29.10;52.90
40702;DHT22;26387;50.114;8.662;2022-08-19T10:41:19;29.10;53.10
40702;DHT22;26387;50.114;8.662;2022-08-19T10:43:45;29.30;52.90
40702;DHT22;26387;50.114;8.662;2022-08-19T10:46:13;29.50;53.00
40702;DHT22;26387;50.114;8.662;2022-08-19T10:48:40;29.60;52.70
40702;DHT22;26387;50.114;8.662;2022-08-19T10:51:07;29.70;52.30
40702;DHT22;26387;50.114;8.662;2022-08-19T10:53:52;29.70;51.90
40702;DHT22;26387;50.114;8.662;2022-08-19T10:56:18;29.70;52.00
40702;DHT22;26387;50.114;8.662;2022-08-19T10:59:04;29.80;52.10
40702;DHT22;26387;50.114;8.662;2022-08-19T11:01:31;29.80;51.20
40702;DHT22;26387;50.114;8.662;2022-08-19T11:03:59;29.70;51.40
40702;DHT22;26387;50.114;8.662;2022-08-19T11:06:25;29.50;51.20
40702;DHT22;26387;50.114;8.662;2022-08-19T11:08:54;29.40;51.50
40702;DHT22;26387;50.114;8.662;2022-08-19T11:11:21;29.40;51.40
40702;DHT22;26387;50.114;8.662;2022-08-19T11:13:47;29.50;51.60
40702;DHT22;26387;50.114;8.662;2022-08-19T11:16:16;29.70;51.80
40702;DHT22;26387;50.114;8.662;2022-08-19T11:18:47;29.80;51.50
40702;DHT22;26387;50.114;8.662;2022-08-19T11:21:16;29.80;51.20
40702;DHT22;26387;50.114;8.662;2022-08-19T11:23:46;29.90;51.00
40702;DHT22;26387;50.114;8.662;2022-08-19T11:26:13;29.90;48.70
40702;DHT22;26387;50.114;8.662;2022-08-19T11:28:40;29.90;49.10
40702;DHT22;26387;50.114;8.662;2022-08-19T11:31:17;29.90;49.60
40702;DHT22;26387;50.114;8.662;2022-08-19T11:33:43;30.00;49.20
40702;DHT22;26387;50.114;8.662;2022-08-19T11:36:09;30.10;49.30
40702;DHT22;26387;50.114;8.662;2022-08-19T11:38:36;30.20;49.20
40702;DHT22;26387;50.114;8.662;2022-08-19T11:41:04;30.40;49.20
40702;DHT22;26387;50.114;8.662;2022-08-19T11:43:31;30.50;48.60
40702;DHT22;26387;50.114;8.662;2022-08-19T11:45:57;30.40;48.80
40702;DHT22;26387;50.114;8.662;2022-08-19T11:48:24;30.40;48.20
40702;DHT22;26387;50.114;8.662;2022-08-19T11:50:53;30.30;47.70
40702;DHT22;26387;50.114;8.662;2022-08-19T11:53:23;30.30;47.30
40702;DHT22;26387;50.114;8.662;2022-08-19T11:55:49;30.40;47.30
40702;DHT22;26387;50.114;8.662;2022-08-19T11:58:16;30.50;47.20
40702;DHT22;26387;50.114;8.662;2022-08-19T12:00:43;30.60;47.30
40702;DHT22;26387;50.114;8.662;2022-08-19T12:03:10;30.60;47.20
40702;DHT22;26387;50.114;8.662;2022-08-19T12:05:38;30.60;47.20
40702;DHT22;26387;50.114;8.662;2022-08-19T12:08:04;30.40;47.00
40702;DHT22;26387;50.114;8.662;2022-08-19T12:10:30;30.50;46.90
40702;DHT22;26387;50.114;8.662;2022-08-19T12:12:55;30.70;45.80
40702;DHT22;26387;50.114;8.662;2022-08-19T12:15:21;30.90;45.50
40702;DHT22;26387;50.114;8.662;2022-08-19T12:17:47;31.20;45.30
40702;DHT22;26387;50.114;8.662;2022-08-19T12:20:13;31.50;45.10
40702;DHT22;26387;50.114;8.662;2022-08-19T12:22:41;31.70;44.20
40702;DHT22;26387;50.114;8.662;2022-08-19T12:25:08;31.80;44.10
40702;DHT22;26387;50.114;8.662;2022-08-19T12:27:34;31.80;44.30
40702;DHT22;26387;50.114;8.662;2022-08-19T12:30:01;31.70;43.70
40702;DHT22;26387;50.114;8.662;2022-08-19T12:32:27;31.50;43.70
40702;DHT22;26387;50.114;8.662;2022-08-19T12:34:53;31.30;42.70
40702;DHT22;26387;50.114;8.662;2022-08-19T12:37:19;31.10;42.80
40702;DHT22;26387;50.114;8.662;2022-08-19T12:39:45;31.10;43.50
40702;DHT22;26387;50.114;8.662;2022-08-19T12:42:12;30.90;43.80
40702;DHT22;26387;50.114;8.662;2022-08-19T12:44:40;30.90;44.20
40702;DHT22;26387;50.114;8.662;2022-08-19T12:47:07;30.90;44.00
40702;DHT22;26387;50.114;8.662;2022-08-19T12:49:33;30.90;44.00
40702;DHT22;26387;50.114;8.662;2022-08-19T12:52:04;31.00;43.90
40702;DHT22;26387;50.114;8.662;2022-08-19T12:54:30;30.90;44.10
40702;DHT22;26387;50.114;8.662;2022-08-19T12:56:57;31.10;43.30
40702;DHT22;26387;50.114;8.662;2022-08-19T12:59:23;31.40;42.10
40702;DHT22;26387;50.114;8.662;2022-08-19T13:01:48;31.70;42.30
40702;DHT22;26387;50.114;8.662;2022-08-19T13:04:15;32.10;42.10
40702;DHT22;26387;50.114;8.662;2022-08-19T13:06:42;32.40;42.00
40702;DHT22;26387;50.114;8.662;2022-08-19T13:09:08;32.60;42.10
40702;DHT22;26387;50.114;8.662;2022-08-19T13:11:34;32.60;42.00
40702;DHT22;26387;50.114;8.662;2022-08-19T13:14:00;32.50;41.60
40702;DHT22;26387;50.114;8.662;2022-08-19T13:16:27;32.40;41.40
40702;DHT22;26387;50.114;8.662;2022-08-19T13:18:54;32.20;42.00
40702;DHT22;26387;50.114;8.662;2022-08-19T13:21:23;32.20;41.70
40702;DHT22;26387;50.114;8.662;2022-08-19T13:23:49;32.10;41.50
40702;DHT22;26387;50.114;8.662;2022-08-19T13:26:16;32.30;40.10
40702;DHT22;26387;50.114;8.662;2022-08-19T13:28:43;32.60;40.20
40702;DHT22;26387;50.114;8.662;2022-08-19T13:31:32;32.90;39.30
40702;DHT22;26387;50.114;8.662;2022-08-19T13:44:08;33.40;38.60
40702;DHT22;26387;50.114;8.662;2022-08-19T13:46:34;34.00;37.70
40702;DHT22;26387;50.114;8.662;2022-08-19T13:49:00;33.60;38.20
40702;DHT22;26387;50.114;8.662;2022-08-19T13:51:25;33.40;38.40
40702;DHT22;26387;50.114;8.662;2022-08-19T13:53:51;33.30;39.00
40702;DHT22;26387;50.114;8.662;2022-08-19T13:56:18;33.10;39.20
40702;DHT22;26387;50.114;8.662;2022-08-19T13:58:47;32.90;39.30
40702;DHT22;26387;50.114;8.662;2022-08-19T14:01:12;32.70;39.90
40702;DHT22;26387;50.114;8.662;2022-08-19T14:03:43;32.40;39.50
40702;DHT22;26387;50.114;8.662;2022-08-19T14:06:09;32.40;39.80
40702;DHT22;26387;50.114;8.662;2022-08-19T14:08:35;32.50;40.20
40702;DHT22;26387;50.114;8.662;2022-08-19T14:11:04;32.90;39.80
40702;DHT22;26387;50.114;8.662;2022-08-19T14:13:30;33.10;39.30
40702;DHT22;26387;50.114;8.662;2022-08-19T14:15:58;33.20;39.10
40702;DHT22;26387;50.114;8.662;2022-08-19T14:18:23;33.20;38.90
40702;DHT22;26387;50.114;8.662;2022-08-19T14:20:50;33.20;39.30
40702;DHT22;26387;50.114;8.662;2022-08-19T14:23:16;33.00;39.20
40702;DHT22;26387;50.114;8.662;2022-08-19T14:25:43;32.80;39.40
40702;DHT22;26387;50.114;8.662;2022-08-19T14:50:16;39.20;48.10
40702;DHT22;26387;50.114;8.662;2022-08-19T14:52:42;37.50;33.80
40702;DHT22;26387;50.114;8.662;2022-08-19T15:29:26;44.10;27.20
40702;DHT22;26387;50.114;8.662;2022-08-19T15:31:53;41.90;29.20
40702;DHT22;26387;50.114;8.662;2022-08-19T15:34:22;41.00;28.50
40702;DHT22;26387;50.114;8.662;2022-08-19T15:36:48;40.30;29.50
40702;DHT22;26387;50.114;8.662;2022-08-19T15:39:14;40.30;29.50
40702;DHT22;26387;50.114;8.662;2022-08-19T15:41:41;40.60;30.00
40702;DHT22;26387;50.114;8.662;2022-08-19T15:44:14;40.70;29.40
40702;DHT22;26387;50.114;8.662;2022-08-19T15:46:41;40.80;29.30
40702;DHT22;26387;50.114;8.662;2022-08-19T15:49:09;40.50;29.40
40702;DHT22;26387;50.114;8.662;2022-08-19T15:51:36;39.50;29.30
40702;DHT22;26387;50.114;8.662;2022-08-19T15:54:05;39.10;29.80
40702;DHT22;26387;50.114;8.662;2022-08-19T15:56:31;38.40;30.10
40702;DHT22;26387;50.114;8.662;2022-08-19T15:59:15;37.90;30.50
40702;DHT22;26387;50.114;8.662;2022-08-19T16:01:59;36.60;31.20
40702;DHT22;26387;50.114;8.662;2022-08-19T16:04:43;36.50;31.70
40702;DHT22;26387;50.114;8.662;2022-08-19T16:07:28;36.10;31.50
40702;DHT22;26387;50.114;8.662;2022-08-19T16:09:53;35.60;32.30
40702;DHT22;26387;50.114;8.662;2022-08-19T16:12:19;35.40;32.40
40702;DHT22;26387;50.114;8.662;2022-08-19T16:14:44;35.20;32.50
40702;DHT22;26387;50.114;8.662;2022-08-19T16:17:12;35.00;32.70
40702;DHT22;26387;50.114;8.662;2022-08-19T16:19:38;34.80;33.10
40702;DHT22;26387;50.114;8.662;2022-08-19T16:22:05;34.60;33.30
40702;DHT22;26387;50.114;8.662;2022-08-19T16:24:31;34.40;33.80
40702;DHT22;26387;50.114;8.662;2022-08-19T16:26:58;34.10;33.90
40702;DHT22;26387;50.114;8.662;2022-08-19T16:29:27;34.00;34.00
40702;DHT22;26387;50.114;8.662;2022-08-19T16:31:53;33.80;34.60
40702;DHT22;26387;50.114;8.662;2022-08-19T16:34:21;33.50;35.00
40702;DHT22;26387;50.114;8.662;2022-08-19T16:36:48;33.50;35.20
40702;DHT22;26387;50.114;8.662;2022-08-19T16:39:15;33.40;35.50
40702;DHT22;26387;50.114;8.662;2022-08-19T16:41:43;33.30;35.80
40702;DHT22;26387;50.114;8.662;2022-08-19T16:44:11;33.20;35.30
40702;DHT22;26387;50.114;8.662;2022-08-19T16:46:37;33.20;35.50
40702;DHT22;26387;50.114;8.662;2022-08-19T16:49:07;33.00;35.40
40702;DHT22;26387;50.114;8.662;2022-08-19T16:51:32;32.80;35.60
40702;DHT22;26387;50.114;8.662;2022-08-19T16:53:59;32.70;35.50
40702;DHT22;26387;50.114;8.662;2022-08-19T16:56:24;32.30;35.70